Time;durP1;ratioP1;P1;durP2;ratioP2;P2;SDS_P1;SDS_P2;PMS_P1;PMS_P2;Temp;Humidity;BMP_temperature;BMP_pressure;BME280_temperature;BME280_humidity;BME280_pressure;Samples;Min_cycle;Max_cycle;Signal;HPM_P1;HPM_P2
2023/11/21 00:01:48;;;;;;;;;;;18.40;64.70;;;;;;5025103;28;19913;-70
2023/11/21 00:04:15;;;;;;;;;;;18.40;64.70;;;;;;5017914;28;19913;-69
2023/11/21 00:06:41;;;;;;;;;;;18.40;64.70;;;;;;5019598;28;20272;-70
2023/11/21 00:09:08;;;;;;;;;;;18.40;64.70;;;;;;5026215;28;19917;-70
2023/11/21 00:11:33;;;;;;;;;;;18.40;64.70;;;;;;5026280;28;19909;-75
2023/11/21 00:13:59;;;;;;;;;;;18.40;64.70;;;;;;5018727;28;19913;-69
2023/11/21 00:16:25;;;;;;;;;;;18.40;64.70;;;;;;5025672;28;19916;-69
2023/11/21 00:18:51;;;;;;;;;;;18.40;64.70;;;;;;5020994;28;20363;-68
2023/11/21 00:21:16;;;;;;;;;;;18.40;64.70;;;;;;5021047;28;19913;-70
2023/11/21 00:23:42;;;;;;;;;;;18.40;64.70;;;;;;5019408;28;19924;-70
2023/11/21 00:26:07;;;;;;;;;;;18.40;64.70;;;;;;5024364;28;20291;-70
2023/11/21 00:28:33;;;;;;;;;;;18.40;64.70;;;;;;5026862;28;19913;-69
2023/11/21 00:30:58;;;;;;;;;;;18.40;64.70;;;;;;5022640;28;19933;-70
2023/11/21 00:33:25;;;;;;;;;;;18.40;64.70;;;;;;5022046;28;19917;-70
2023/11/21 00:35:50;;;;;;;;;;;18.40;64.60;;;;;;5025810;28;19987;-70
2023/11/21 00:38:19;;;;;;;;;;;18.40;64.60;;;;;;5022954;28;20437;-70
2023/11/21 00:40:45;;;;;;;;;;;18.40;64.60;;;;;;5018799;28;19909;-69
2023/11/21 00:43:10;;;;;;;;;;;18.40;64.60;;;;;;5018312;28;19920;-70
2023/11/21 00:45:36;;;;;;;;;;;18.40;64.60;;;;;;5027157;28;19949;-70
2023/11/21 00:48:02;;;;;;;;;;;18.40;64.60;;;;;;5026094;28;19917;-70
2023/11/21 00:50:27;;;;;;;;;;;18.40;64.70;;;;;;5022460;28;19913;-70
2023/11/21 00:52:53;;;;;;;;;;;18.40;64.60;;;;;;5025092;28;19913;-70
2023/11/21 00:55:18;;;;;;;;;;;18.40;64.60;;;;;;5020571;28;20319;-70
2023/11/21 00:57:44;;;;;;;;;;;18.40;64.60;;;;;;5021508;28;20099;-70
2023/11/21 01:00:14;;;;;;;;;;;18.40;64.60;;;;;;5019504;28;19910;-70
2023/11/21 01:02:40;;;;;;;;;;;18.40;64.60;;;;;;5019122;28;19917;-65
2023/11/21 01:05:07;;;;;;;;;;;18.40;64.60;;;;;;5021756;28;19909;-71
2023/11/21 01:07:33;;;;;;;;;;;18.40;64.60;;;;;;5017597;28;20351;-69
2023/11/21 01:09:58;;;;;;;;;;;18.40;64.60;;;;;;5020320;28;19913;-70
2023/11/21 01:12:24;;;;;;;;;;;18.40;64.60;;;;;;5021386;28;19928;-70
2023/11/21 01:14:50;;;;;;;;;;;18.40;64.50;;;;;;5021975;28;19953;-70
2023/11/21 01:17:16;;;;;;;;;;;18.40;64.50;;;;;;5025233;28;19944;-69
2023/11/21 01:19:42;;;;;;;;;;;18.40;64.50;;;;;;5025368;28;20395;-70
2023/11/21 01:22:08;;;;;;;;;;;18.40;64.50;;;;;;5021277;28;19931;-69
2023/11/21 01:24:33;;;;;;;;;;;18.30;64.40;;;;;;5025651;28;19917;-69
2023/11/21 01:26:59;;;;;;;;;;;18.40;64.50;;;;;;5021056;28;19913;-70
2023/11/21 01:29:24;;;;;;;;;;;18.40;64.50;;;;;;5024808;28;19913;-69
2023/11/21 01:31:50;;;;;;;;;;;18.40;64.50;;;;;;5018475;28;19913;-70
2023/11/21 01:34:15;;;;;;;;;;;18.40;64.50;;;;;;5021610;28;19962;-69
2023/11/21 01:36:41;;;;;;;;;;;18.40;64.50;;;;;;5025050;28;20298;-66
2023/11/21 01:39:10;;;;;;;;;;;18.40;64.40;;;;;;5018902;28;19916;-69
2023/11/21 01:41:36;;;;;;;;;;;18.40;64.40;;;;;;5018084;28;19917;-70
2023/11/21 01:44:02;;;;;;;;;;;18.40;64.40;;;;;;5022017;28;19916;-70
2023/11/21 01:46:29;;;;;;;;;;;18.40;64.40;;;;;;5022022;28;19916;-70
2023/11/21 01:48:54;;;;;;;;;;;18.40;64.40;;;;;;5024883;28;19917;-70
2023/11/21 01:51:20;;;;;;;;;;;18.40;64.40;;;;;;5021307;28;19964;-70
2023/11/21 01:53:46;;;;;;;;;;;18.40;64.40;;;;;;5021035;28;20427;-69
2023/11/21 01:56:12;;;;;;;;;;;18.40;64.30;;;;;;5019292;28;19920;-69
2023/11/21 01:58:38;;;;;;;;;;;18.40;64.30;;;;;;5020892;28;20102;-69
2023/11/21 02:01:03;;;;;;;;;;;18.30;64.20;;;;;;5014309;28;19940;-69
2023/11/21 02:03:29;;;;;;;;;;;18.40;64.30;;;;;;5013692;28;20308;-69
2023/11/21 02:05:54;;;;;;;;;;;18.40;64.30;;;;;;5017251;28;19917;-69
2023/11/21 02:08:20;;;;;;;;;;;18.40;64.20;;;;;;5017595;28;19909;-68
2023/11/21 02:10:45;;;;;;;;;;;18.40;64.20;;;;;;5018764;28;19996;-70
2023/11/21 02:13:11;;;;;;;;;;;18.40;64.80;;;;;;5013821;28;20327;-70
2023/11/21 02:15:38;;;;;;;;;;;18.40;64.20;;;;;;5012284;28;19967;-70
2023/11/21 02:18:05;;;;;;;;;;;18.40;64.10;;;;;;5015601;28;19910;-69
2023/11/21 02:20:34;;;;;;;;;;;18.40;64.10;;;;;;5019377;28;20003;-70
2023/11/21 02:23:00;;;;;;;;;;;18.40;64.10;;;;;;5020507;28;19948;-69
2023/11/21 02:25:25;;;;;;;;;;;18.40;64.00;;;;;;5022024;28;20307;-69
2023/11/21 02:27:51;;;;;;;;;;;18.40;64.00;;;;;;5020281;28;19917;-68
2023/11/21 02:30:16;;;;;;;;;;;18.40;64.00;;;;;;5018129;28;20478;-69
2023/11/21 02:32:43;;;;;;;;;;;18.40;64.00;;;;;;5019003;28;19924;-69
2023/11/21 02:35:09;;;;;;;;;;;18.40;64.00;;;;;;5019810;28;19913;-69
2023/11/21 02:37:35;;;;;;;;;;;18.40;64.00;;;;;;5018684;28;19909;-69
2023/11/21 02:40:03;;;;;;;;;;;18.40;64.00;;;;;;5017707;28;19917;-69
2023/11/21 02:42:29;;;;;;;;;;;18.40;63.90;;;;;;5016906;28;19909;-70
2023/11/21 02:44:54;;;;;;;;;;;18.40;63.90;;;;;;5017248;28;20003;-70
2023/11/21 02:47:19;;;;;;;;;;;18.40;63.90;;;;;;5019170;28;20341;-70
2023/11/21 02:49:45;;;;;;;;;;;18.40;63.80;;;;;;5024277;28;20121;-70
2023/11/21 02:52:10;;;;;;;;;;;18.40;63.80;;;;;;5022880;28;19920;-69
2023/11/21 02:54:36;;;;;;;;;;;18.40;64.50;;;;;;5021753;28;19913;-70
2023/11/21 02:57:02;;;;;;;;;;;18.40;63.90;;;;;;5025551;28;20291;-69
2023/11/21 02:59:27;;;;;;;;;;;18.40;63.90;;;;;;5020523;28;19913;-69
2023/11/21 03:01:53;;;;;;;;;;;18.40;63.90;;;;;;5013267;28;20025;-68
2023/11/21 03:04:19;;;;;;;;;;;18.40;63.90;;;;;;5012830;28;19939;-69
2023/11/21 03:06:44;;;;;;;;;;;18.40;63.90;;;;;;5010423;28;19915;-69
2023/11/21 03:09:12;;;;;;;;;;;18.30;63.80;;;;;;5015512;28;19913;-69
2023/11/21 03:11:37;;;;;;;;;;;18.40;63.80;;;;;;5017372;28;20372;-70
2023/11/21 03:14:03;;;;;;;;;;;18.40;63.80;;;;;;5015905;28;19952;-69
2023/11/21 03:16:28;;;;;;;;;;;18.40;63.70;;;;;;5018775;28;19909;-69
2023/11/21 03:18:54;;;;;;;;;;;18.40;63.70;;;;;;5017786;28;19915;-69
2023/11/21 03:21:19;;;;;;;;;;;18.40;63.70;;;;;;5018199;28;20211;-69
2023/11/21 03:23:45;;;;;;;;;;;18.40;63.70;;;;;;5015015;28;20067;-69
2023/11/21 03:26:13;;;;;;;;;;;18.40;63.70;;;;;;5016754;28;19909;-69
2023/11/21 03:28:39;;;;;;;;;;;18.40;63.70;;;;;;5016020;28;19913;-70
2023/11/21 03:31:06;;;;;;;;;;;18.40;63.70;;;;;;5010565;28;19918;-69
2023/11/21 03:33:32;;;;;;;;;;;18.40;63.70;;;;;;5016765;28;20255;-69
2023/11/21 03:35:57;;;;;;;;;;;18.40;63.60;;;;;;5012120;28;20012;-70
2023/11/21 03:38:23;;;;;;;;;;;18.40;63.60;;;;;;5015836;28;20432;-70
2023/11/21 03:40:49;;;;;;;;;;;18.40;63.60;;;;;;5018596;28;19913;-70
2023/11/21 03:43:14;;;;;;;;;;;18.40;63.60;;;;;;5018854;28;20328;-69
2023/11/21 03:45:40;;;;;;;;;;;18.40;63.50;;;;;;5021221;28;20003;-68
2023/11/21 03:48:06;;;;;;;;;;;18.40;63.50;;;;;;5019913;28;19916;-71
2023/11/21 03:50:31;;;;;;;;;;;18.40;63.50;;;;;;5018670;28;19936;-70
2023/11/21 03:52:57;;;;;;;;;;;18.40;63.50;;;;;;5018231;28;19932;-70
2023/11/21 03:55:24;;;;;;;;;;;18.40;63.40;;;;;;5023556;28;19917;-69
2023/11/21 03:57:51;;;;;;;;;;;18.40;63.50;;;;;;5023867;28;20393;-70
2023/11/21 04:00:17;;;;;;;;;;;18.40;63.50;;;;;;5016160;28;20003;-70
2023/11/21 04:02:42;;;;;;;;;;;18.40;63.50;;;;;;5020230;28;20024;-69
2023/11/21 04:05:09;;;;;;;;;;;18.40;63.60;;;;;;5020625;28;19917;-69
2023/11/21 04:07:34;;;;;;;;;;;18.30;63.50;;;;;;5021179;28;20020;-69
2023/11/21 04:10:00;;;;;;;;;;;18.30;63.50;;;;;;5022708;28;20040;-70
2023/11/21 04:12:25;;;;;;;;;;;18.30;63.50;;;;;;5020396;28;20008;-70
2023/11/21 04:14:51;;;;;;;;;;;18.40;63.60;;;;;;5002641;28;19921;-70
2023/11/21 04:17:19;;;;;;;;;;;18.30;63.50;;;;;;5018429;28;20394;-69
2023/11/21 04:19:45;;;;;;;;;;;18.30;63.60;;;;;;5025896;28;20368;-65
2023/11/21 04:22:11;;;;;;;;;;;18.30;63.50;;;;;;5027121;28;19916;-69
2023/11/21 04:24:37;;;;;;;;;;;18.30;63.50;;;;;;5014164;28;19913;-70
2023/11/21 04:27:03;;;;;;;;;;;18.30;63.50;;;;;;5023435;28;19999;-69
2023/11/21 04:29:28;;;;;;;;;;;18.30;63.50;;;;;;5019599;28;20036;-69
2023/11/21 04:31:54;;;;;;;;;;;18.30;63.50;;;;;;5022683;28;20015;-70
2023/11/21 04:34:19;;;;;;;;;;;18.30;63.50;;;;;;5018164;28;20387;-69
2023/11/21 04:36:45;;;;;;;;;;;18.30;63.50;;;;;;5020212;28;19909;-69
2023/11/21 04:39:11;;;;;;;;;;;18.30;63.50;;;;;;5017879;28;20261;-69
2023/11/21 04:41:39;;;;;;;;;;;18.30;63.50;;;;;;5014704;28;19916;-70
2023/11/21 04:44:05;;;;;;;;;;;18.30;63.50;;;;;;5022818;28;19931;-69
2023/11/21 04:46:31;;;;;;;;;;;18.30;63.50;;;;;;5020136;28;19909;-70
2023/11/21 04:48:57;;;;;;;;;;;18.30;63.50;;;;;;5019630;28;20257;-70
2023/11/21 04:51:22;;;;;;;;;;;18.30;63.50;;;;;;5022408;28;19959;-70
2023/11/21 04:53:48;;;;;;;;;;;18.30;63.40;;;;;;5017344;28;19913;-70
2023/11/21 04:56:13;;;;;;;;;;;18.30;63.40;;;;;;5015620;28;19913;-70
2023/11/21 04:58:39;;;;;;;;;;;18.30;63.40;;;;;;5019929;28;19920;-69
2023/11/21 05:01:05;;;;;;;;;;;18.30;63.40;;;;;;5016945;28;19909;-70
2023/11/21 05:03:31;;;;;;;;;;;18.30;63.40;;;;;;5018375;28;19916;-70
2023/11/21 05:05:57;;;;;;;;;;;18.30;63.30;;;;;;5019533;28;19913;-70
2023/11/21 05:08:22;;;;;;;;;;;18.30;63.30;;;;;;5022359;28;20313;-70
2023/11/21 05:10:49;;;;;;;;;;;18.30;63.30;;;;;;5021399;28;20348;-70
2023/11/21 05:13:17;;;;;;;;;;;18.30;63.40;;;;;;5016250;28;20221;-70
2023/11/21 05:15:42;;;;;;;;;;;18.30;63.40;;;;;;5019196;28;19909;-69
2023/11/21 05:18:07;;;;;;;;;;;18.30;63.40;;;;;;5019499;28;20121;-69
2023/11/21 05:20:33;;;;;;;;;;;18.30;63.40;;;;;;5014341;28;19927;-70
2023/11/21 05:22:58;;;;;;;;;;;18.30;63.40;;;;;;5019976;28;19949;-70
2023/11/21 05:25:24;;;;;;;;;;;18.30;63.40;;;;;;5017957;28;19959;-70
2023/11/21 05:27:49;;;;;;;;;;;18.30;63.40;;;;;;5016921;28;20360;-70
2023/11/21 05:30:15;;;;;;;;;;;18.30;63.40;;;;;;5018804;28;20254;-69
2023/11/21 05:32:44;;;;;;;;;;;18.30;63.40;;;;;;5014464;28;19917;-70
2023/11/21 05:35:14;;;;;;;;;;;18.30;63.40;;;;;;5025060;28;20346;-69
2023/11/21 05:37:39;;;;;;;;;;;18.30;63.40;;;;;;5014903;28;19913;-69
2023/11/21 05:40:06;;;;;;;;;;;18.30;63.40;;;;;;5018745;28;19909;-70
2023/11/21 05:42:32;;;;;;;;;;;18.30;63.40;;;;;;5018650;28;20295;-69
2023/11/21 05:44:59;;;;;;;;;;;18.30;63.40;;;;;;5020174;28;19948;-69
2023/11/21 05:47:26;;;;;;;;;;;18.30;63.30;;;;;;5022540;28;20463;-69
2023/11/21 05:49:52;;;;;;;;;;;18.30;63.30;;;;;;5021224;28;19921;-69
2023/11/21 05:52:17;;;;;;;;;;;18.20;63.30;;;;;;5015408;28;19914;-70
2023/11/21 05:54:43;;;;;;;;;;;18.30;63.30;;;;;;5016891;28;19916;-71
2023/11/21 05:57:08;;;;;;;;;;;18.30;63.30;;;;;;5023244;28;19919;-71
2023/11/21 05:59:34;;;;;;;;;;;18.30;63.30;;;;;;5024603;28;20043;-71
2023/11/21 06:01:59;;;;;;;;;;;18.30;63.30;;;;;;5024441;28;19998;-70
2023/11/21 06:04:25;;;;;;;;;;;18.30;63.30;;;;;;5020359;28;20323;-70
2023/11/21 06:06:53;;;;;;;;;;;18.20;63.20;;;;;;5021934;28;19914;-69
2023/11/21 06:09:19;;;;;;;;;;;18.30;63.20;;;;;;5028746;28;19920;-70
2023/11/21 06:11:44;;;;;;;;;;;18.20;63.20;;;;;;5026082;28;19936;-71
2023/11/21 06:14:10;;;;;;;;;;;18.30;63.20;;;;;;5013189;28;19940;-69
2023/11/21 06:16:36;;;;;;;;;;;18.20;63.00;;;;;;5017914;28;19998;-71
2023/11/21 06:19:02;;;;;;;;;;;18.20;63.00;;;;;;5014566;28;19968;-73
2023/11/21 06:21:27;;;;;;;;;;;18.20;63.10;;;;;;5000578;28;20450;-71
2023/11/21 06:23:52;;;;;;;;;;;18.10;63.10;;;;;;5022095;28;19940;-70
2023/11/21 06:26:18;;;;;;;;;;;18.10;63.30;;;;;;5019860;28;20059;-73
2023/11/21 06:28:44;;;;;;;;;;;18.10;63.30;;;;;;5021975;28;19916;-73
2023/11/21 06:31:10;;;;;;;;;;;18.10;63.80;;;;;;5027603;28;19920;-69
2023/11/21 06:33:36;;;;;;;;;;;18.20;64.00;;;;;;5026621;28;19913;-72
2023/11/21 06:36:05;;;;;;;;;;;18.20;63.90;;;;;;5018384;28;20307;-71
2023/11/21 06:38:32;;;;;;;;;;;18.20;63.90;;;;;;5018687;28;19921;-69
2023/11/21 06:40:58;;;;;;;;;;;18.10;63.70;;;;;;5027903;28;19917;-70
2023/11/21 06:43:23;;;;;;;;;;;18.10;63.70;;;;;;5028448;28;20386;-69
2023/11/21 06:45:49;;;;;;;;;;;18.10;63.70;;;;;;5021825;28;19917;-69
2023/11/21 06:48:14;;;;;;;;;;;18.10;63.70;;;;;;5022739;28;20004;-71
2023/11/21 06:50:40;;;;;;;;;;;18.00;63.60;;;;;;5027447;28;19924;-72
2023/11/21 06:53:08;;;;;;;;;;;18.00;63.50;;;;;;5023904;28;19948;-70
2023/11/21 06:55:33;;;;;;;;;;;18.00;63.60;;;;;;5024094;28;19931;-70
2023/11/21 06:58:00;;;;;;;;;;;18.00;63.50;;;;;;5028421;28;20360;-72
2023/11/21 07:00:27;;;;;;;;;;;18.00;63.40;;;;;;5021546;28;19992;-71
2023/11/21 07:02:52;;;;;;;;;;;18.00;63.30;;;;;;5027089;28;19913;-72
2023/11/21 07:05:20;;;;;;;;;;;18.00;63.30;;;;;;5022884;28;19909;-72
2023/11/21 07:07:46;;;;;;;;;;;18.00;63.30;;;;;;5018910;28;19917;-71
2023/11/21 07:10:12;;;;;;;;;;;18.00;63.30;;;;;;5019244;28;19913;-70
2023/11/21 07:12:38;;;;;;;;;;;18.00;63.20;;;;;;5020810;28;19914;-67
2023/11/21 07:15:05;;;;;;;;;;;18.00;63.30;;;;;;5021993;28;20299;-70
2023/11/21 07:17:31;;;;;;;;;;;18.00;63.20;;;;;;5017817;28;19996;-71
2023/11/21 07:19:56;;;;;;;;;;;18.00;63.30;;;;;;5023599;28;20344;-71
2023/11/21 07:22:22;;;;;;;;;;;18.00;63.40;;;;;;5010908;28;20000;-67
2023/11/21 07:24:48;;;;;;;;;;;18.00;63.30;;;;;;5026032;28;19913;-72
2023/11/21 07:27:13;;;;;;;;;;;18.00;63.20;;;;;;5014219;28;19909;-70
2023/11/21 07:29:39;;;;;;;;;;;18.10;63.20;;;;;;5024173;28;20330;-69
2023/11/21 07:32:05;;;;;;;;;;;18.10;63.10;;;;;;5025822;28;20273;-71
2023/11/21 07:34:31;;;;;;;;;;;18.10;63.10;;;;;;5027044;28;19958;-71
2023/11/21 07:36:56;;;;;;;;;;;18.10;63.00;;;;;;5023787;28;20284;-69
2023/11/21 07:39:21;;;;;;;;;;;18.20;62.90;;;;;;5015281;28;19995;-72
2023/11/21 07:41:48;;;;;;;;;;;18.10;62.80;;;;;;5027466;28;19996;-70
2023/11/21 07:44:14;;;;;;;;;;;18.20;62.80;;;;;;5024693;28;19992;-69
2023/11/21 07:46:40;;;;;;;;;;;18.20;62.90;;;;;;5022613;28;19916;-70
2023/11/21 07:49:05;;;;;;;;;;;18.20;63.10;;;;;;5024460;28;20291;-71
2023/11/21 07:51:31;;;;;;;;;;;18.20;63.10;;;;;;5027012;28;19913;-70
2023/11/21 07:53:56;;;;;;;;;;;18.20;63.30;;;;;;5025477;28;19924;-72
2023/11/21 07:56:22;;;;;;;;;;;18.20;63.30;;;;;;5027967;28;20687;-71
2023/11/21 07:58:47;;;;;;;;;;;18.20;63.20;;;;;;5019369;28;20312;-70
2023/11/21 08:01:13;;;;;;;;;;;18.20;64.50;;;;;;5014962;28;19915;-70
2023/11/21 08:03:38;;;;;;;;;;;18.20;64.10;;;;;;5014338;28;19984;-70
2023/11/21 08:06:05;;;;;;;;;;;18.20;63.90;;;;;;5017544;28;19992;-71
2023/11/21 08:08:32;;;;;;;;;;;18.20;63.70;;;;;;5013603;28;19936;-69
2023/11/21 08:10:57;;;;;;;;;;;18.20;63.70;;;;;;4992548;28;19910;-69
2023/11/21 08:13:26;;;;;;;;;;;18.20;63.60;;;;;;4972836;28;19987;-71
2023/11/21 08:15:54;;;;;;;;;;;18.20;63.50;;;;;;4991594;28;19924;-71
2023/11/21 08:18:20;;;;;;;;;;;18.20;63.50;;;;;;5012571;28;19936;-71
2023/11/21 08:20:48;;;;;;;;;;;18.20;63.50;;;;;;5023914;28;19963;-69
2023/11/21 08:23:15;;;;;;;;;;;18.10;63.40;;;;;;5020428;28;19976;-70
2023/11/21 08:25:42;;;;;;;;;;;18.10;63.30;;;;;;5017069;28;19916;-70
2023/11/21 08:28:07;;;;;;;;;;;18.10;63.30;;;;;;5018544;28;19943;-71
2023/11/21 08:30:33;;;;;;;;;;;18.20;63.30;;;;;;5016531;28;20367;-66
2023/11/21 08:32:58;;;;;;;;;;;18.10;63.10;;;;;;5012060;28;20687;-71
2023/11/21 08:35:24;;;;;;;;;;;18.20;64.80;;;;;;5034843;28;19910;-69
2023/11/21 08:37:53;;;;;;;;;;;18.30;64.80;;;;;;5015655;28;20023;-68
2023/11/21 08:40:19;;;;;;;;;;;18.40;64.70;;;;;;5005244;28;98230;-71
2023/11/21 08:44:26;;;;;;;;;;;18.50;64.60;;;;;;5019168;27;19928;-54
2023/11/21 08:46:52;;;;;;;;;;;18.50;64.50;;;;;;5017599;28;19925;-65
2023/11/21 08:49:17;;;;;;;;;;;19.70;64.70;;;;;;5013325;28;19917;-50
2023/11/21 08:51:44;;;;;;;;;;;19.10;64.00;;;;;;5011071;28;19921;-54
2023/11/21 08:54:11;;;;;;;;;;;17.70;67.20;;;;;;5013856;28;20217;-60
2023/11/21 08:56:37;;;;;;;;;;;18.00;68.50;;;;;;5011437;28;19984;-56
2023/11/21 08:59:03;;;;;;;;;;;18.20;67.10;;;;;;5021584;28;19980;-54
2023/11/21 09:01:32;;;;;;;;;;;18.20;66.30;;;;;;5018165;28;20034;-60
2023/11/21 09:03:58;;;;;;;;;;;18.10;66.80;;;;;;5005349;28;19983;-57
2023/11/21 09:06:24;;;;;;;;;;;18.20;66.90;;;;;;5020159;28;20037;-52
2023/11/21 09:08:49;;;;;;;;;;;18.20;66.30;;;;;;5017430;28;19976;-54
2023/11/21 09:11:15;;;;;;;;;;;18.20;66.20;;;;;;5019656;28;20340;-53
2023/11/21 09:13:40;;;;;;;;;;;18.10;66.10;;;;;;5017400;28;20019;-56
2023/11/21 09:16:06;;;;;;;;;;;18.10;66.30;;;;;;5013186;28;20661;-55
2023/11/21 09:18:31;;;;;;;;;;;18.10;66.00;;;;;;5014459;28;19981;-54
2023/11/21 09:20:57;;;;;;;;;;;18.10;65.90;;;;;;5020809;28;20181;-55
2023/11/21 09:23:22;;;;;;;;;;;18.10;66.10;;;;;;5027850;28;19997;-54
2023/11/21 09:25:49;;;;;;;;;;;18.10;65.90;;;;;;5018679;28;19982;-55
2023/11/21 09:28:15;;;;;;;;;;;18.10;66.00;;;;;;5017322;28;19984;-55
2023/11/21 09:30:41;;;;;;;;;;;18.10;65.90;;;;;;5015818;28;19981;-50
2023/11/21 09:33:06;;;;;;;;;;;18.10;66.00;;;;;;5025095;28;19971;-55
2023/11/21 09:35:32;;;;;;;;;;;18.00;66.00;;;;;;5028498;28;19988;-55
2023/11/21 09:37:57;;;;;;;;;;;18.10;66.00;;;;;;5018954;28;20051;-55
2023/11/21 09:40:23;;;;;;;;;;;18.10;65.90;;;;;;5025046;28;20002;-50
2023/11/21 09:42:52;;;;;;;;;;;18.10;65.90;;;;;;5019449;28;20068;-53
2023/11/21 09:45:28;;;;;;;;;;;18.00;65.90;;;;;;5047072;28;20011;-53
2023/11/21 09:47:57;;;;;;;;;;;18.00;65.80;;;;;;5039376;28;19973;-52
2023/11/21 09:50:23;;;;;;;;;;;18.00;65.80;;;;;;5036993;28;20034;-51
2023/11/21 09:52:48;;;;;;;;;;;18.00;65.80;;;;;;5044581;28;19975;-54
2023/11/21 09:55:16;;;;;;;;;;;18.00;66.00;;;;;;5026919;28;19981;-55
2023/11/21 09:57:41;;;;;;;;;;;18.00;66.00;;;;;;5024609;28;19979;-52
2023/11/21 10:00:11;;;;;;;;;;;18.10;66.10;;;;;;5028950;28;19983;-53
2023/11/21 10:02:38;;;;;;;;;;;18.00;66.00;;;;;;5029700;28;19989;-51
2023/11/21 10:05:04;;;;;;;;;;;18.10;66.10;;;;;;5025268;28;20040;-53
2023/11/21 10:07:31;;;;;;;;;;;18.10;66.10;;;;;;5029634;28;20433;-54
2023/11/21 10:09:57;;;;;;;;;;;18.10;66.10;;;;;;5028456;28;20397;-52
2023/11/21 10:12:23;;;;;;;;;;;18.10;66.10;;;;;;5024370;28;20015;-53
2023/11/21 10:14:51;;;;;;;;;;;18.10;66.10;;;;;;5023498;28;19986;-53
2023/11/21 10:17:18;;;;;;;;;;;18.10;66.20;;;;;;5024322;28;19996;-55
2023/11/21 10:19:45;;;;;;;;;;;18.20;66.40;;;;;;5029358;28;20446;-54
2023/11/21 10:22:10;;;;;;;;;;;18.20;66.10;;;;;;5023703;28;20341;-54
2023/11/21 10:24:37;;;;;;;;;;;18.30;66.30;;;;;;5015707;23;19990;-53
2023/11/21 10:27:03;;;;;;;;;;;18.30;66.30;;;;;;5023441;28;19987;-52
2023/11/21 10:29:30;;;;;;;;;;;18.30;66.40;;;;;;5016332;28;19982;-55
2023/11/21 10:31:58;;;;;;;;;;;18.40;66.40;;;;;;5014997;28;19975;-60
2023/11/21 10:34:24;;;;;;;;;;;18.40;66.10;;;;;;5008358;28;20479;-52
2023/11/21 10:36:49;;;;;;;;;;;18.40;66.10;;;;;;5013451;28;20038;-54
2023/11/21 10:39:18;;;;;;;;;;;18.40;66.20;;;;;;5020109;28;20019;-49
2023/11/21 10:43:05;;;;;;;;;;;18.40;66.00;;;;;;5055244;28;20033;-51
2023/11/21 10:45:31;;;;;;;;;;;18.40;65.70;;;;;;5065402;28;19987;-55
2023/11/21 10:52:48;;;;;;;5.78;2.58;;;18.90;65.00;;;;;;5054674;27;20355;-45
2023/11/21 10:55:22;;;;;;;4.75;2.00;;;19.00;63.30;;;;;;5027054;28;20033;-44
2023/11/21 10:57:50;;;;;;;5.55;2.35;;;19.00;63.50;;;;;;5012768;28;20025;-44
2023/11/21 11:00:20;;;;;;;3.38;2.15;;;18.90;63.60;;;;;;5012352;28;20060;-47
2023/11/21 11:02:49;;;;;;;3.10;1.60;;;18.90;63.40;;;;;;5027570;28;20530;-43
2023/11/21 11:05:19;;;;;;;3.08;1.77;;;18.70;63.90;;;;;;5030859;28;20029;-40
2023/11/21 11:07:47;;;;;;;5.95;2.20;;;18.50;64.60;;;;;;5032310;28;20036;-41
2023/11/21 11:10:14;;;;;;;3.33;1.80;;;18.40;65.10;;;;;;5033572;28;20060;-46
2023/11/21 11:12:42;;;;;;;3.28;1.95;;;18.30;65.40;;;;;;5040408;28;20037;-46
2023/11/21 11:15:11;;;;;;;3.92;1.65;;;18.10;65.70;;;;;;5050438;28;20646;-45
2023/11/21 11:17:41;;;;;;;7.20;2.17;;;18.10;65.90;;;;;;5054006;28;20095;-42
2023/11/21 11:20:11;;;;;;;3.05;1.70;;;18.10;66.00;;;;;;5046486;28;20566;-41
2023/11/21 11:23:01;;;;;;;5.45;2.05;;;18.00;66.00;;;;;;5053868;28;20041;-40
2023/11/21 11:25:57;;;;;;;3.22;1.70;;;18.00;66.10;;;;;;5053034;28;20033;-47
2023/11/21 11:28:36;;;;;;;2.65;1.60;;;18.00;66.10;;;;;;5056852;28;20071;-43
2023/11/21 11:31:21;;;;;;;4.32;2.42;;;17.90;66.10;;;;;;5062195;28;20524;-46
2023/11/21 11:33:59;;;;;;;3.03;1.75;;;17.90;66.20;;;;;;5063102;28;20110;-47
2023/11/21 11:36:30;;;;;;;3.78;1.90;;;17.90;66.20;;;;;;5053706;28;20032;-47
2023/11/21 11:38:56;;;;;;;2.47;1.77;;;17.90;66.20;;;;;;5059597;28;20041;-46
2023/11/21 11:41:30;;;;;;;2.25;1.58;;;17.90;66.20;;;;;;5049626;28;20032;-45
2023/11/21 11:43:56;;;;;;;4.17;1.97;;;17.90;66.20;;;;;;5043695;28;20494;-41
2023/11/21 11:46:46;;;;;;;3.03;2.08;;;17.80;66.10;;;;;;5056463;28;20114;-46
2023/11/21 11:49:24;;;;;;;1.92;1.33;;;17.80;66.10;;;;;;5055706;28;20148;-46
2023/11/21 11:52:29;;;;;;;4.18;2.03;;;17.80;66.10;;;;;;5040631;28;20048;-45
2023/11/21 11:54:55;;;;;;;3.33;1.80;;;17.80;66.10;;;;;;5056695;28;20387;-43
2023/11/21 11:57:24;;;;;;;4.40;1.90;;;17.80;66.10;;;;;;5053671;28;20505;-44
2023/11/21 12:00:16;;;;;;;4.30;1.48;;;17.80;66.30;;;;;;5042865;28;20069;-45
2023/11/21 12:02:47;;;;;;;3.78;2.15;;;17.80;66.10;;;;;;5049131;28;20143;-43
2023/11/21 12:05:20;;;;;;;5.75;2.03;;;17.70;66.20;;;;;;5043713;28;20044;-42
2023/11/21 12:07:57;;;;;;;4.88;2.90;;;17.70;66.20;;;;;;5045835;28;20390;-45
2023/11/21 12:10:27;;;;;;;2.42;2.05;;;17.70;66.10;;;;;;5038415;28;20438;-42
2023/11/21 12:12:55;;;;;;;4.20;2.00;;;17.70;66.10;;;;;;5018215;28;20029;-46
2023/11/21 12:15:22;;;;;;;3.40;2.33;;;17.60;66.20;;;;;;5041227;28;20036;-47
2023/11/21 12:17:49;;;;;;;2.78;1.90;;;17.70;66.20;;;;;;5048153;28;20422;-48
2023/11/21 12:20:18;;;;;;;3.47;1.92;;;17.70;66.20;;;;;;5037297;28;20039;-47
2023/11/21 12:22:49;;;;;;;3.85;2.30;;;17.70;66.20;;;;;;5028365;28;20026;-45
2023/11/21 12:25:20;;;;;;;3.80;2.67;;;17.60;66.10;;;;;;5030105;28;20217;-45
2023/11/21 12:27:50;;;;;;;3.80;2.22;;;17.60;66.10;;;;;;5026689;28;20601;-45
2023/11/21 12:30:17;;;;;;;4.35;2.40;;;17.70;66.10;;;;;;5024286;28;20129;-44
2023/11/21 12:32:51;;;;;;;3.33;2.13;;;17.60;66.10;;;;;;5019858;28;20033;-42
2023/11/21 12:35:19;;;;;;;4.68;2.70;;;17.60;66.10;;;;;;5020110;28;20428;-43
2023/11/21 12:37:46;;;;;;;4.35;2.17;;;17.60;66.10;;;;;;5021949;28;20041;-46
2023/11/21 12:40:15;;;;;;;2.70;2.00;;;17.60;66.10;;;;;;5035646;28;20782;-42
2023/11/21 12:42:46;;;;;;;4.30;2.30;;;17.60;66.20;;;;;;5041309;28;20410;-45
2023/11/21 12:45:21;;;;;;;4.20;2.65;;;17.60;66.20;;;;;;5032322;28;20086;-43
2023/11/21 12:47:50;;;;;;;4.90;3.08;;;17.60;66.20;;;;;;5033415;28;20098;-45
2023/11/21 12:50:23;;;;;;;3.28;2.30;;;17.60;66.20;;;;;;5034191;28;20030;-43
2023/11/21 12:52:50;;;;;;;2.80;2.13;;;17.50;66.10;;;;;;5040072;28;20044;-46
2023/11/21 12:55:23;;;;;;;3.33;2.55;;;17.50;66.10;;;;;;5033230;28;20021;-43
2023/11/21 12:57:55;;;;;;;3.90;2.10;;;17.50;66.10;;;;;;5025553;28;20382;-44
2023/11/21 13:00:31;;;;;;;3.75;2.35;;;17.60;66.20;;;;;;5021229;28;20029;-48
2023/11/21 13:02:58;;;;;;;2.97;2.42;;;17.50;66.20;;;;;;5041143;28;20044;-44
2023/11/21 13:05:34;;;;;;;3.45;2.47;;;17.50;66.20;;;;;;5042754;28;20033;-44
2023/11/21 13:08:03;;;;;;;4.43;2.97;;;17.50;66.20;;;;;;5041479;28;20036;-46
2023/11/21 13:10:30;;;;;;;3.70;3.00;;;17.50;66.20;;;;;;5039777;28;20489;-42
2023/11/21 13:13:00;;;;;;;3.50;2.53;;;17.50;66.20;;;;;;5040437;28;20414;-44
2023/11/21 13:15:31;;;;;;;3.55;2.30;;;17.50;66.20;;;;;;5036301;28;20391;-45
2023/11/21 13:17:57;;;;;;;4.03;3.13;;;17.50;66.20;;;;;;5020475;28;20029;-47
2023/11/21 13:20:24;;;;;;;3.50;2.70;;;17.50;66.20;;;;;;5020532;28;20037;-45
2023/11/21 13:22:54;;;;;;;3.97;2.90;;;17.50;66.20;;;;;;5021642;28;20036;-45
2023/11/21 13:25:24;;;;;;;2.90;2.38;;;17.50;66.30;;;;;;5037523;28;20029;-45
2023/11/21 13:27:50;;;;;;;3.83;3.20;;;17.50;66.30;;;;;;5041484;28;20410;-44
2023/11/21 13:30:17;;;;;;;3.70;2.78;;;17.50;66.20;;;;;;5039089;28;20569;-44
2023/11/21 13:32:46;;;;;;;4.43;3.15;;;17.50;66.20;;;;;;5044060;28;20043;-44
2023/11/21 13:35:20;;;;;;;6.18;2.75;;;17.40;66.20;;;;;;5039714;28;20112;-45
2023/11/21 13:37:48;;;;;;;5.68;2.63;;;17.40;66.20;;;;;;5040422;28;20127;-47
2023/11/21 13:40:19;;;;;;;5.07;2.85;;;17.50;66.30;;;;;;5038690;28;20056;-46
2023/11/21 13:42:45;;;;;;;4.30;2.72;;;17.40;66.20;;;;;;5040119;28;20037;-42
2023/11/21 13:45:12;;;;;;;4.45;2.92;;;17.40;66.20;;;;;;5040238;28;20029;-46
2023/11/21 13:47:39;;;;;;;6.10;3.33;;;17.40;66.30;;;;;;5042585;28;20467;-45
2023/11/21 13:50:13;;;;;;;6.40;3.20;;;17.40;66.20;;;;;;5043131;28;20028;-44
2023/11/21 13:52:39;;;;;;;5.82;3.17;;;17.40;66.20;;;;;;5040655;28;20491;-46
2023/11/21 13:55:07;;;;;;;3.63;2.55;;;17.40;66.20;;;;;;5040971;28;20025;-45
2023/11/21 13:57:33;;;;;;;5.68;3.53;;;17.40;66.20;;;;;;5042065;28;20029;-46
2023/11/21 13:59:59;;;;;;;4.22;3.20;;;17.40;66.20;;;;;;5044180;28;20521;-44
2023/11/21 14:02:32;;;;;;;5.13;3.13;;;17.40;66.30;;;;;;5034323;28;20036;-47